createdAt,value
2018-02-03T00:00:58.354Z,84.30
2018-02-03T00:03:25.351Z,84.30
2018-02-03T00:05:53.155Z,84.00
2018-02-03T00:08:20.126Z,84.00
2018-02-03T00:10:47.103Z,83.90
2018-02-03T00:13:14.128Z,84.10
2018-02-03T00:15:41.104Z,84.20
2018-02-03T00:18:08.128Z,84.50
2018-02-03T00:20:35.855Z,84.90
2018-02-03T00:23:02.883Z,84.80
2018-02-03T00:25:29.935Z,84.90
2018-02-03T00:27:56.906Z,84.60
2018-02-03T00:30:23.887Z,84.80
2018-02-03T00:32:50.854Z,84.20
2018-02-03T00:35:18.895Z,84.50
2018-02-03T00:37:45.866Z,84.50
2018-02-03T00:40:12.863Z,84.60
2018-02-03T00:42:40.602Z,83.50
2018-02-03T00:45:07.680Z,83.50
2018-02-03T00:47:34.706Z,84.20
2018-02-03T00:50:01.679Z,84.40
2018-02-03T00:52:28.654Z,84.30
2018-02-03T00:54:56.511Z,83.70
2018-02-03T00:57:23.570Z,83.20
2018-02-03T00:59:50.634Z,83.30
2018-02-03T01:02:17.611Z,83.60
2018-02-03T01:04:44.574Z,83.60
2018-02-03T01:07:11.551Z,84.10
2018-02-03T01:09:38.519Z,84.30
2018-02-03T01:12:06.334Z,83.30
2018-02-03T01:14:33.307Z,83.30
2018-02-03T01:17:00.359Z,83.10
2018-02-03T01:19:27.331Z,82.90
2018-02-03T01:21:54.303Z,83.00
2018-02-03T01:24:21.274Z,83.90
2018-02-03T01:26:49.016Z,84.00
2018-02-03T01:29:15.999Z,84.00
2018-02-03T01:31:42.998Z,84.20
2018-02-03T01:34:09.979Z,84.30
2018-02-03T01:36:36.947Z,84.50
2018-02-03T01:39:03.923Z,84.50
2018-02-03T01:41:30.907Z,84.30
2018-02-03T01:43:58.651Z,84.50
2018-02-03T01:46:25.695Z,84.50
2018-02-03T01:48:52.675Z,84.70
2018-02-03T01:51:19.643Z,84.80
2018-02-03T01:53:47.495Z,84.60
2018-02-03T01:56:14.552Z,84.60
2018-02-03T01:58:41.542Z,84.20
2018-02-03T02:01:08.527Z,84.20
2018-02-03T02:03:36.262Z,84.70
2018-02-03T02:06:03.312Z,85.40
2018-02-03T02:08:30.270Z,84.30
2018-02-03T02:10:57.258Z,84.30
2018-02-03T02:13:24.222Z,84.10
2018-02-03T02:15:51.970Z,85.10
2018-02-03T02:18:19.006Z,85.10
2018-02-03T02:20:45.985Z,85.50
2018-02-03T02:23:13.883Z,85.50
2018-02-03T02:25:40.850Z,85.30
2018-02-03T02:28:07.823Z,85.00
2018-02-03T02:30:35.563Z,85.00
2018-02-03T02:33:02.535Z,84.90
2018-02-03T02:35:29.554Z,85.10
2018-02-03T02:37:56.526Z,85.10
2018-02-03T02:40:23.503Z,84.70
2018-02-03T02:42:50.474Z,84.60
2018-02-03T02:45:17.444Z,84.00
2018-02-03T02:47:45.278Z,84.70
2018-02-03T02:50:12.242Z,84.70
2018-02-03T02:52:39.227Z,85.10
2018-02-03T02:55:06.251Z,85.40
2018-02-03T02:57:33.251Z,85.20
2018-02-03T03:00:00.270Z,85.10
2018-02-03T03:02:27.247Z,85.20
2018-02-03T03:04:54.214Z,85.10
2018-02-03T03:07:21.402Z,85.00
2018-02-03T03:09:49.142Z,85.10
2018-02-03T03:12:16.186Z,85.10
2018-02-03T03:14:43.242Z,85.40
2018-02-03T03:17:10.313Z,85.40
2018-02-03T03:19:37.270Z,85.30
2018-02-03T03:22:04.323Z,84.90
2018-02-03T03:24:31.291Z,84.50
2018-02-03T03:26:58.254Z,84.70
2018-02-03T03:29:25.239Z,85.00
2018-02-03T03:31:53.719Z,85.00
2018-02-03T03:34:20.752Z,85.00
2018-02-03T03:36:47.816Z,85.00
2018-02-03T03:39:14.868Z,85.00
2018-02-03T03:41:41.839Z,84.90
2018-02-03T03:44:08.895Z,85.00
2018-02-03T03:46:35.942Z,85.10
2018-02-03T03:49:03.015Z,84.50
2018-02-03T03:51:29.980Z,84.60
2018-02-03T03:53:56.950Z,85.00
2018-02-03T03:56:23.914Z,84.90
2018-02-03T03:58:50.959Z,84.90
2018-02-03T04:01:17.930Z,84.90
2018-02-03T04:03:44.962Z,85.00
2018-02-03T04:06:11.940Z,85.20
2018-02-03T04:08:38.907Z,85.40
2018-02-03T04:11:05.887Z,85.60
2018-02-03T04:13:33.619Z,85.90
2018-02-03T04:16:00.642Z,85.90
2018-02-03T04:18:27.629Z,85.90
2018-02-03T04:20:54.611Z,86.00
2018-02-03T04:23:21.583Z,86.00
2018-02-03T04:25:50.143Z,85.60
2018-02-03T04:28:17.110Z,85.60
2018-02-03T04:30:44.090Z,85.20
2018-02-03T04:33:11.451Z,85.30
2018-02-03T04:35:38.488Z,85.10
2018-02-03T04:38:05.538Z,85.30
2018-02-03T04:40:32.602Z,85.50
2018-02-03T04:42:59.574Z,84.60
2018-02-03T04:45:26.542Z,84.30
2018-02-03T04:47:53.526Z,84.60
2018-02-03T04:50:20.500Z,84.40
2018-02-03T04:52:48.315Z,84.80
2018-02-03T04:55:15.283Z,84.80
2018-02-03T04:57:42.258Z,84.90
2018-02-03T05:00:09.273Z,85.10
2018-02-03T05:02:36.995Z,84.80
2018-02-03T05:05:04.027Z,84.70
2018-02-03T05:07:31.013Z,84.90
2018-02-03T05:09:58.015Z,84.90
2018-02-03T05:12:25.004Z,85.00
2018-02-03T05:14:51.973Z,84.80
2018-02-03T05:17:18.951Z,84.70
2018-02-03T05:19:45.979Z,84.60
2018-02-03T05:22:13.039Z,84.50
2018-02-03T05:24:40.094Z,84.40
2018-02-03T05:27:07.163Z,84.50
2018-02-03T05:29:34.229Z,84.50
2018-02-03T05:32:01.190Z,84.10
2018-02-03T05:34:28.165Z,84.20
2018-02-03T05:36:55.194Z,84.10
2018-02-03T05:39:22.166Z,83.90
2018-02-03T05:41:49.139Z,83.70
2018-02-03T05:44:16.115Z,84.00
2018-02-03T05:46:43.082Z,84.00
2018-02-03T05:49:10.818Z,83.60
2018-02-03T05:51:37.795Z,83.50
2018-02-03T05:54:04.776Z,83.50
2018-02-03T05:56:32.506Z,82.90
2018-02-03T05:58:59.550Z,82.90
2018-02-03T06:01:26.531Z,83.90
2018-02-03T06:03:53.502Z,84.00
2018-02-03T06:06:20.484Z,84.10
2018-02-03T06:08:48.220Z,84.40
2018-02-03T06:11:15.262Z,84.40
2018-02-03T06:13:42.247Z,85.40
2018-02-03T06:16:09.369Z,84.90
2018-02-03T06:18:37.078Z,84.10
2018-02-03T06:21:04.055Z,84.00
2018-02-03T06:23:32.615Z,83.30
2018-02-03T06:25:59.699Z,83.30
2018-02-03T06:28:26.667Z,82.90
2018-02-03T06:30:53.656Z,83.10
2018-02-03T06:33:21.480Z,83.80
2018-02-03T06:35:48.442Z,83.90
2018-02-03T06:38:15.423Z,84.30
2018-02-03T06:40:42.446Z,84.90
2018-02-03T06:43:09.489Z,85.40
2018-02-03T06:45:37.199Z,85.60
2018-02-03T06:48:04.179Z,85.50
2018-02-03T06:50:31.154Z,85.50
2018-02-03T06:52:58.974Z,86.10
2018-02-03T06:55:26.033Z,86.10
2018-02-03T06:57:53.094Z,86.30
2018-02-03T07:00:20.087Z,86.40
2018-02-03T07:02:47.118Z,86.50
2018-02-03T07:05:14.091Z,86.50
2018-02-03T07:07:41.134Z,86.30
2018-02-03T07:10:08.192Z,86.30
2018-02-03T07:12:35.259Z,86.40
2018-02-03T07:15:02.223Z,86.30
2018-02-03T07:17:29.202Z,86.10
2018-02-03T07:19:56.175Z,86.10
2018-02-03T07:22:23.151Z,86.00
2018-02-03T07:24:50.883Z,86.10
2018-02-03T07:27:17.919Z,86.10
2018-02-03T07:29:44.894Z,86.00
2018-02-03T07:32:11.938Z,86.10
2018-02-03T07:34:39.008Z,86.40
2018-02-03T07:37:05.971Z,86.50
2018-02-03T07:39:33.034Z,86.60
2018-02-03T07:42:00.004Z,86.70
2018-02-03T07:44:26.975Z,86.70
2018-02-03T07:46:53.992Z,86.90
2018-02-03T07:49:20.971Z,87.00
2018-02-03T07:51:48.024Z,87.00
2018-02-03T07:54:14.986Z,87.10
2018-02-03T07:56:41.958Z,87.00
2018-02-03T07:59:08.939Z,87.10
2018-02-03T08:01:36.675Z,87.20
2018-02-03T08:04:03.718Z,87.10
2018-02-03T08:06:30.690Z,87.20
2018-02-03T08:08:57.667Z,87.00
2018-02-03T08:11:24.634Z,87.10
2018-02-03T08:13:51.612Z,87.30
2018-02-03T08:16:19.358Z,87.40
2018-02-03T08:18:46.334Z,87.40
2018-02-03T08:21:14.184Z,87.60
2018-02-03T08:23:41.236Z,87.50
2018-02-03T08:26:08.207Z,87.40
2018-02-03T08:28:35.198Z,87.70
2018-02-03T08:31:03.023Z,87.60
2018-02-03T08:33:29.994Z,87.60
2018-02-03T08:35:56.968Z,87.80
2018-02-03T08:38:23.994Z,87.80
2018-02-03T08:40:50.967Z,87.80
2018-02-03T08:43:18.026Z,87.90
2018-02-03T08:45:45.074Z,88.00
2018-02-03T08:48:12.056Z,88.00
2018-02-03T08:50:39.027Z,87.40
2018-02-03T08:53:06.003Z,87.10
2018-02-03T08:55:33.735Z,86.50
2018-02-03T08:58:00.782Z,86.40
2018-02-03T09:00:27.862Z,86.50
2018-02-03T09:02:54.822Z,86.80
2018-02-03T09:05:21.799Z,86.10
2018-02-03T09:07:48.827Z,85.70
2018-02-03T09:10:15.886Z,85.70
2018-02-03T09:12:42.948Z,85.30
2018-02-03T09:15:09.943Z,85.70
2018-02-03T09:17:36.906Z,85.50
2018-02-03T09:20:04.702Z,86.00
2018-02-03T09:22:31.694Z,85.50
2018-02-03T09:24:58.671Z,85.60
2018-02-03T09:27:25.634Z,85.50
2018-02-03T09:29:52.619Z,85.30
2018-02-03T09:32:19.587Z,85.90
2018-02-03T09:34:47.335Z,86.10
2018-02-03T09:37:14.302Z,86.10
2018-02-03T09:39:41.283Z,85.00
2018-02-03T09:42:09.119Z,82.30
2018-02-03T09:44:36.162Z,82.30
2018-02-03T09:47:03.134Z,82.30
2018-02-03T09:49:30.128Z,81.80
2018-02-03T09:51:57.866Z,78.20
2018-02-03T09:54:24.847Z,78.20
2018-02-03T09:56:51.806Z,75.50
2018-02-03T09:59:18.782Z,75.70
2018-02-03T10:01:46.568Z,71.60
2018-02-03T10:04:13.519Z,71.50
2018-02-03T10:06:41.338Z,70.40
2018-02-03T10:09:08.408Z,71.10
2018-02-03T10:11:35.370Z,71.70
2018-02-03T10:14:02.360Z,68.50
2018-02-03T10:16:29.327Z,67.60
2018-02-03T10:18:57.070Z,67.40
2018-02-03T10:21:24.035Z,66.80
2018-02-03T10:23:51.015Z,64.60
2018-02-03T10:26:17.987Z,63.70
2018-02-03T10:28:45.802Z,62.60
2018-02-03T10:31:12.867Z,62.50
2018-02-03T10:33:39.839Z,58.20
2018-02-03T10:36:06.811Z,58.90
2018-02-03T10:38:34.255Z,55.60
2018-02-03T10:41:01.207Z,55.50
2018-02-03T10:43:28.183Z,56.00
2018-02-03T10:45:55.207Z,56.30
2018-02-03T10:48:22.929Z,59.50
2018-02-03T10:50:49.903Z,59.40
2018-02-03T10:53:16.879Z,58.40
2018-02-03T10:55:44.616Z,57.10
2018-02-03T10:58:11.655Z,57.10
2018-02-03T11:00:44.510Z,57.50
2018-02-03T11:03:12.274Z,58.60
2018-02-03T11:05:40.747Z,58.50
2018-02-03T11:08:07.723Z,58.50
2018-02-03T11:10:34.747Z,58.70
2018-02-03T11:13:01.800Z,58.50
2018-02-03T11:15:28.858Z,59.70
2018-02-03T11:17:55.923Z,60.70
2018-02-03T11:20:22.898Z,60.10
2018-02-03T11:22:49.934Z,59.80
2018-02-03T11:25:16.911Z,60.20
2018-02-03T11:27:43.950Z,60.30
2018-02-03T11:30:10.943Z,60.30
2018-02-03T11:32:37.998Z,59.50
2018-02-03T11:35:05.034Z,60.10
2018-02-03T11:37:32.002Z,59.70
2018-02-03T11:39:58.978Z,58.30
2018-02-03T11:42:25.946Z,58.60
2018-02-03T11:44:52.923Z,58.10
2018-02-03T11:47:20.759Z,58.10
2018-02-03T11:49:47.807Z,58.10
2018-02-03T11:52:14.779Z,58.40
2018-02-03T11:54:41.827Z,58.40
2018-02-03T11:57:08.844Z,57.30
2018-02-03T11:59:36.591Z,57.30
2018-02-03T12:02:03.562Z,57.30
2018-02-03T12:04:30.539Z,58.50
2018-02-03T12:06:58.351Z,56.60
2018-02-03T12:09:25.322Z,56.60
2018-02-03T12:11:52.298Z,57.50
2018-02-03T12:14:19.275Z,57.50
2018-02-03T12:16:47.006Z,57.90
2018-02-03T12:19:13.983Z,57.80
2018-02-03T12:21:41.019Z,58.30
2018-02-03T12:24:08.010Z,58.00
2018-02-03T12:26:34.978Z,57.60
2018-02-03T12:29:01.961Z,57.00
2018-02-03T12:31:29.695Z,58.00
2018-02-03T12:33:56.893Z,58.00
2018-02-03T12:36:24.010Z,57.30
2018-02-03T12:38:51.055Z,56.90
2018-02-03T12:41:18.123Z,56.80
2018-02-03T12:43:45.094Z,57.00
2018-02-03T12:46:12.066Z,57.80
2018-02-03T12:48:39.051Z,57.80
2018-02-03T12:51:06.867Z,57.80
2018-02-03T12:53:33.842Z,57.70
2018-02-03T12:56:00.938Z,57.80
2018-02-03T12:58:28.674Z,58.20
2018-02-03T13:00:55.730Z,58.00
2018-02-03T13:03:22.703Z,58.60
2018-02-03T13:05:49.679Z,59.00
2018-02-03T13:08:18.230Z,57.50
2018-02-03T13:10:45.299Z,57.50
2018-02-03T13:13:12.978Z,57.40
2018-02-03T13:15:39.958Z,57.80
2018-02-03T13:18:06.939Z,58.80
2018-02-03T13:20:34.688Z,58.60
2018-02-03T13:23:01.655Z,58.60
2018-02-03T13:25:28.674Z,59.10
2018-02-03T13:27:55.743Z,58.60
2018-02-03T13:30:22.773Z,58.70
2018-02-03T13:32:49.879Z,57.80
2018-02-03T13:35:16.858Z,58.00
2018-02-03T13:37:43.830Z,58.00
2018-02-03T13:40:11.655Z,60.00
2018-02-03T13:42:38.658Z,59.40
2018-02-03T13:45:05.674Z,57.70
2018-02-03T13:47:32.739Z,58.40
2018-02-03T13:49:59.711Z,57.70
2018-02-03T13:52:26.758Z,57.80
2018-02-03T13:54:53.897Z,57.70
2018-02-03T13:57:21.694Z,58.00
2018-02-03T13:59:48.671Z,58.00
2018-02-03T14:02:15.714Z,57.10
2018-02-03T14:04:42.695Z,57.80
2018-02-03T14:07:09.710Z,58.90
2018-02-03T14:09:37.483Z,57.40
2018-02-03T14:12:04.451Z,57.40
2018-02-03T14:14:31.452Z,57.70
2018-02-03T14:16:58.418Z,58.30
2018-02-03T14:19:25.479Z,58.80
2018-02-03T14:21:52.450Z,59.50
2018-02-03T14:24:26.166Z,61.60
2018-02-03T14:26:53.975Z,62.10
2018-02-03T14:29:20.978Z,62.00
2018-02-03T14:31:47.970Z,62.20
2018-02-03T14:34:15.747Z,61.50
2018-02-03T14:36:43.570Z,60.40
2018-02-03T14:39:10.630Z,60.30
2018-02-03T14:41:37.729Z,60.40
2018-02-03T14:44:06.194Z,60.80
2018-02-03T14:46:33.212Z,60.90
2018-02-03T14:49:01.033Z,62.50
2018-02-03T14:51:28.082Z,62.50
2018-02-03T14:53:56.201Z,61.80
2018-02-03T14:56:23.267Z,63.30
2018-02-03T14:58:50.282Z,62.60
2018-02-03T15:01:17.338Z,62.20
2018-02-03T15:03:44.295Z,62.60
2018-02-03T15:06:11.412Z,62.50
2018-02-03T15:52:21.234Z,63.70
2018-02-03T15:54:48.294Z,65.10
2018-02-03T15:57:15.274Z,66.10
2018-02-03T15:59:42.246Z,67.00
2018-02-03T16:02:09.280Z,68.70
2018-02-03T16:04:36.242Z,67.90
2018-02-03T16:07:03.295Z,67.80
2018-02-03T16:09:30.343Z,68.40
2018-02-03T16:11:57.331Z,68.40
2018-02-03T16:14:24.302Z,68.10
2018-02-03T16:16:51.283Z,69.00
2018-02-03T16:19:19.094Z,70.40
2018-02-03T16:21:46.115Z,70.40
2018-02-03T16:24:13.850Z,69.30
2018-02-03T16:26:40.830Z,69.30
2018-02-03T16:29:07.806Z,68.80
2018-02-03T16:31:35.555Z,68.40
2018-02-03T16:34:02.583Z,68.40
2018-02-03T16:36:29.651Z,68.40
2018-02-03T16:38:56.656Z,69.20
2018-02-03T16:41:23.607Z,69.60
2018-02-03T16:43:51.347Z,69.80
2018-02-03T16:46:18.402Z,69.90
2018-02-03T16:48:45.463Z,70.00
2018-02-03T16:51:12.526Z,71.00
2018-02-03T16:53:39.591Z,70.50
2018-02-03T16:56:06.633Z,70.30
2018-02-03T16:58:33.607Z,70.40
2018-02-03T17:01:00.663Z,70.70
2018-02-03T17:03:33.423Z,70.40
2018-02-03T17:06:00.405Z,70.60
2018-02-03T17:08:27.370Z,71.80
2018-02-03T17:10:54.434Z,72.40
2018-02-03T17:13:21.403Z,70.90
2018-02-03T17:15:48.455Z,71.30
2018-02-03T17:18:15.427Z,71.10
2018-02-03T17:20:42.394Z,71.00
2018-02-03T17:23:09.366Z,70.90
2018-02-03T17:25:36.343Z,71.60
2018-02-03T17:28:04.078Z,72.30
2018-02-03T17:30:31.058Z,72.30
2018-02-03T17:32:58.080Z,72.10
2018-02-03T17:35:25.047Z,73.10
2018-02-03T17:37:57.914Z,73.40
2018-02-03T17:40:24.891Z,73.60
2018-02-03T17:42:51.947Z,72.30
2018-02-03T17:45:24.746Z,72.50
2018-02-03T17:47:51.723Z,72.90
2018-02-03T17:50:18.758Z,72.40
2018-02-03T17:52:45.826Z,72.50
2018-02-03T17:55:18.583Z,73.30
2018-02-03T17:57:45.568Z,73.30
2018-02-03T18:00:12.639Z,73.10
2018-02-03T18:02:39.623Z,72.20
2018-02-03T18:05:06.595Z,72.80
2018-02-03T18:07:33.619Z,72.70
2018-02-03T18:10:00.587Z,72.80
2018-02-03T18:12:27.590Z,72.70
2018-02-03T18:14:55.333Z,73.60
2018-02-03T18:17:22.312Z,73.60
2018-02-03T18:19:49.274Z,74.20
2018-02-03T18:22:17.106Z,74.10
2018-02-03T18:24:44.163Z,74.20
2018-02-03T18:27:11.142Z,74.20
2018-02-03T18:29:38.211Z,74.60
2018-02-03T18:32:05.233Z,74.30
2018-02-03T18:34:32.207Z,74.10
2018-02-03T18:36:59.214Z,74.00
2018-02-03T18:39:26.948Z,74.50
2018-02-03T18:41:53.945Z,74.50
2018-02-03T18:44:20.950Z,74.60
2018-02-03T18:46:47.939Z,74.50
2018-02-03T18:49:14.930Z,74.40
2018-02-03T18:51:42.731Z,75.10
2018-02-03T18:54:09.733Z,75.10
2018-02-03T18:56:36.739Z,75.10
2018-02-03T18:59:03.718Z,75.40
2018-02-03T19:01:30.735Z,75.70
2018-02-03T19:03:58.558Z,75.80
2018-02-03T19:06:25.530Z,75.80
2018-02-03T19:08:52.590Z,75.80
2018-02-03T19:11:19.600Z,76.00
2018-02-03T19:13:46.616Z,76.10
2018-02-03T19:16:13.611Z,76.20
2018-02-03T19:18:41.390Z,76.80
2018-02-03T19:21:09.183Z,77.00
2018-02-03T19:23:36.222Z,77.00
2018-02-03T19:26:03.414Z,77.10
2018-02-03T19:28:30.495Z,77.10
2018-02-03T19:30:57.546Z,77.30
2018-02-03T19:33:24.522Z,77.20
2018-02-03T19:35:51.490Z,77.20
2018-02-03T19:38:18.472Z,77.30
2018-02-03T19:40:45.486Z,77.60
2018-02-03T19:43:12.483Z,77.90
2018-02-03T19:45:39.514Z,78.00
2018-02-03T19:48:06.558Z,78.00
2018-02-03T19:50:33.535Z,78.20
2018-02-03T19:53:00.515Z,78.30
2018-02-03T19:55:27.478Z,78.40
2018-02-03T19:57:54.499Z,78.50
2018-02-03T20:00:21.471Z,79.50
2018-02-03T20:02:48.450Z,78.60
2018-02-03T20:05:15.470Z,78.70
2018-02-03T20:07:42.539Z,79.00
2018-02-03T20:10:09.629Z,79.00
2018-02-03T20:12:36.655Z,79.00
2018-02-03T20:15:03.639Z,79.10
2018-02-03T20:17:30.675Z,79.20
2018-02-03T20:19:57.726Z,79.20
2018-02-03T20:22:24.703Z,79.50
2018-02-03T20:24:51.751Z,79.60
2018-02-03T20:27:18.720Z,79.60
2018-02-03T20:29:45.686Z,79.70
2018-02-03T20:32:12.671Z,79.90
2018-02-03T20:34:39.637Z,80.00
2018-02-03T20:37:07.383Z,80.30
2018-02-03T20:39:34.384Z,80.20
2018-02-03T20:42:02.115Z,80.40
2018-02-03T20:44:29.090Z,80.50
2018-02-03T20:46:56.067Z,80.60
2018-02-03T20:49:23.887Z,80.60
2018-02-03T20:51:50.950Z,80.50
2018-02-03T20:54:17.923Z,80.40
2018-02-03T20:56:44.899Z,80.40
2018-02-03T20:59:13.370Z,80.70
2018-02-03T21:01:40.419Z,80.60
2018-02-03T21:04:07.386Z,80.80
2018-02-03T21:06:34.368Z,80.90
2018-02-03T21:09:01.343Z,81.10
2018-02-03T21:11:29.175Z,81.40
2018-02-03T21:13:56.231Z,81.40
2018-02-03T21:16:23.207Z,81.30
2018-02-03T21:18:50.255Z,81.50
2018-02-03T21:21:17.302Z,81.80
2018-02-03T21:23:44.281Z,82.00
2018-02-03T21:26:11.251Z,82.10
2018-02-03T21:28:38.330Z,82.20
2018-02-03T21:31:06.071Z,82.90
2018-02-03T21:33:33.050Z,82.20
2018-02-03T21:36:00.021Z,82.10
2018-02-03T21:38:26.999Z,82.10
2018-02-03T21:40:54.819Z,82.10
2018-02-03T21:43:21.875Z,82.10
2018-02-03T21:45:48.842Z,82.30
2018-02-03T21:48:15.823Z,82.30
2018-02-03T21:50:42.786Z,82.40
2018-02-03T21:53:09.774Z,82.30
2018-02-03T21:55:37.510Z,82.50
2018-02-03T21:58:04.502Z,82.40
2018-02-03T22:00:32.243Z,82.90
2018-02-03T22:02:59.220Z,82.80
2018-02-03T22:05:26.239Z,82.90
2018-02-03T22:07:53.219Z,83.10
2018-02-03T22:10:20.251Z,83.10
2018-02-03T22:12:47.310Z,83.10
2018-02-03T22:15:14.378Z,83.20
2018-02-03T22:17:41.356Z,83.30
2018-02-03T22:20:08.325Z,83.50
2018-02-03T22:22:35.303Z,83.70
2018-02-03T22:25:03.132Z,84.00
2018-02-03T22:27:30.103Z,83.80
2018-02-03T22:29:57.150Z,84.00
2018-02-03T22:32:24.206Z,84.00
2018-02-03T22:34:51.175Z,84.00
2018-02-03T22:37:18.222Z,84.00
2018-02-03T22:39:45.195Z,83.90
2018-02-03T22:42:12.250Z,83.80
2018-02-03T22:44:39.302Z,83.80
2018-02-03T22:47:06.286Z,83.90
2018-02-03T22:49:33.251Z,83.80
2018-02-03T22:52:00.239Z,84.00
2018-02-03T22:54:27.979Z,84.10
2018-02-03T22:56:54.942Z,84.00
2018-02-03T22:59:21.927Z,84.20
2018-02-03T23:01:49.750Z,84.30
2018-02-03T23:04:16.734Z,84.20
2018-02-03T23:06:43.770Z,84.10
2018-02-03T23:09:10.743Z,84.20
2018-02-03T23:11:37.790Z,84.10
2018-02-03T23:14:04.758Z,84.30
2018-02-03T23:16:31.731Z,84.30
2018-02-03T23:18:58.711Z,84.20
2018-02-03T23:21:26.553Z,84.60
2018-02-03T23:23:53.515Z,84.60
2018-02-03T23:26:20.550Z,84.70
2018-02-03T23:28:47.531Z,84.70
2018-02-03T23:31:14.507Z,84.70
2018-02-03T23:33:41.539Z,84.80
2018-02-03T23:36:08.502Z,85.60
2018-02-03T23:38:35.482Z,84.90
2018-02-03T23:41:02.451Z,85.10
2018-02-03T23:43:29.459Z,85.10
2018-02-03T23:45:56.435Z,85.10
2018-02-03T23:48:23.414Z,84.90
2018-02-03T23:50:50.386Z,85.50
2018-02-03T23:53:17.399Z,84.80
2018-02-03T23:55:44.466Z,85.60
2018-02-03T23:58:11.538Z,84.90
